Hickman, California
Current Conditions -  °F | °C
As of 2:53 PM on Wednesday 22 Oct 2014 (Local Time) from KMOD Reporting Station
Clear Clear  
Wind Chill: 75°   Ceiling: Unl
Heat Index: 75°   Visibility: 10mi
Dew Point: 41°   Wind: 10mph
Humidity: 29%   Direction: 300°WNW
Pressure: 30.01"   Gusts: NA
Location:  37.62°N, 120.75°W
Report Text: KMOD 222153Z 30009KT 10SM CLR 24/05 A3001 RMK AO2 SLP162 T02390050
Loading
Personal Weather Stations






























Interactive Weather Map
Tropical Storm Tracking
New forecast layout! Learn more

10-Day Weather Forecast

Advertisements
Track Severe Weather on mobile